Time;durP1;ratioP1;P1;durP2;ratioP2;P2;SDS_P1;SDS_P2;PMS_P1;PMS_P2;Temp;Humidity;BMP_temperature;BMP_pressure;BME280_temperature;BME280_humidity;BME280_pressure;Samples;Min_cycle;Max_cycle;Signal;HPM_P1;HPM_P2
2023/02/19 00:00:01;;;;;;;3.50;2.08;;;;;;;9.85;68.76;100013.31;5048001;27;97583;-79
2023/02/19 00:02:26;;;;;;;3.13;2.00;;;;;;;9.83;68.87;100007.28;5053588;27;97005;-80
2023/02/19 00:04:52;;;;;;;2.65;1.88;;;;;;;9.84;68.63;100009.00;5067192;27;98109;-78
2023/02/19 00:07:17;;;;;;;4.45;1.77;;;;;;;9.81;68.68;100006.47;5041962;27;97986;-78
2023/02/19 00:09:43;;;;;;;2.63;1.55;;;;;;;9.84;68.74;100014.25;5028173;27;101686;-82
2023/02/19 00:12:08;;;;;;;3.03;1.58;;;;;;;9.81;68.18;100006.47;5028369;27;97139;-77
2023/02/19 00:14:34;;;;;;;2.28;1.77;;;;;;;9.85;68.00;100015.09;5050156;27;97260;-77
2023/02/19 00:16:59;;;;;;;2.47;1.98;;;;;;;9.83;68.09;100015.16;5032369;27;101628;-77
2023/02/19 00:19:25;;;;;;;3.33;1.95;;;;;;;9.64;68.34;99985.25;5035911;27;101988;-78
2023/02/19 00:21:52;;;;;;;4.25;2.22;;;;;;;9.74;68.49;99997.09;5050156;27;96813;-78
2023/02/19 00:24:18;;;;;;;3.10;2.00;;;;;;;9.81;68.23;100009.09;5036210;27;97250;-77
2023/02/19 00:26:44;;;;;;;3.10;2.10;;;;;;;9.80;68.10;100003.91;5024949;27;101449;-81
2023/02/19 00:29:16;;;;;;;3.15;2.00;;;;;;;9.79;67.98;100003.06;5036857;27;98087;-77
2023/02/19 00:31:42;;;;;;;;;;;;;;;9.78;67.94;100001.34;5064158;27;97207;-77
2023/02/19 00:34:08;;;;;;;4.47;2.88;;;;;;;9.79;68.00;99996.97;5052282;27;97447;-77
2023/02/19 00:36:36;;;;;;;6.63;3.60;;;;;;;9.54;67.92;99958.53;5036223;27;101636;-77
2023/02/19 00:39:03;;;;;;;7.47;3.80;;;;;;;9.71;67.70;99978.88;5032283;27;101573;-77
2023/02/19 00:41:29;;;;;;;9.07;4.00;;;;;;;9.74;68.37;99991.88;5030020;27;97437;-78
2023/02/19 00:43:57;;;;;;;9.15;4.70;;;;;;;9.75;68.47;99991.81;5032410;27;97245;-77
2023/02/19 00:46:49;;;;;;;13.68;5.80;;;;;;;9.72;68.69;99996.34;5047522;27;101123;-77
2023/02/19 00:49:18;;;;;;;22.45;8.27;;;;;;;9.74;69.14;99994.50;5022188;27;101202;-77
2023/02/19 00:51:44;;;;;;;14.18;6.07;;;;;;;9.73;68.58;99990.16;5042030;27;97326;-81
2023/02/19 00:54:11;;;;;;;15.48;6.85;;;;;;;9.66;68.63;99972.97;5047014;27;96870;-77
2023/02/19 00:56:37;;;;;;;17.70;7.47;;;;;;;9.48;68.92;99938.66;5038217;27;101543;-77
2023/02/19 00:59:03;;;;;;;23.33;8.88;;;;;;;9.74;69.04;99979.66;5044746;27;101202;-77
2023/02/19 01:01:29;;;;;;;19.63;7.57;;;;;;;9.70;68.82;99974.56;5023310;27;97045;-77
2023/02/19 01:03:55;;;;;;;18.65;7.57;;;;;;;9.73;69.27;99964.81;5038787;27;97269;-77
2023/02/19 01:06:21;;;;;;;18.73;7.13;;;;;;;9.70;69.21;99962.28;5050786;27;98573;-79
2023/02/19 01:08:47;;;;;;;18.38;7.50;;;;;;;9.70;69.35;99953.59;5047403;27;101455;-82
2023/02/19 01:11:13;;;;;;;15.75;6.03;;;;;;;9.67;68.94;99953.69;5029304;27;97047;-77
2023/02/19 01:13:39;;;;;;;11.10;5.25;;;;;;;9.71;69.47;99957.91;5029026;27;97471;-77
2023/02/19 01:16:20;;;;;;;8.98;4.22;;;;;;;9.57;69.15;99933.97;5030274;27;101438;-78
2023/02/19 01:18:46;;;;;;;7.60;3.67;;;;;;;9.69;68.93;99949.25;5038891;27;101328;-81
2023/02/19 01:21:18;;;;;;;10.15;3.13;;;;;;;9.65;69.08;99945.03;5043334;27;97462;-78
2023/02/19 01:23:45;;;;;;;5.10;2.90;;;;;;;9.69;69.29;99957.13;5026818;27;97524;-76
2023/02/19 01:26:13;;;;;;;3.28;2.15;;;;;;;9.66;69.27;99949.38;5044204;27;101496;-78
2023/02/19 01:28:39;;;;;;;2.40;1.80;;;;;;;9.68;68.89;99948.38;4995082;28;100835;-78
2023/02/19 01:31:07;;;;;;;3.00;1.92;;;;;;;9.62;69.20;99945.13;5008465;27;97252;-77
2023/02/19 01:33:32;;;;;;;2.45;1.58;;;;;;;9.66;69.49;99954.63;4995517;27;96905;-78
2023/02/19 01:35:58;;;;;;;2.83;1.80;;;;;;;9.63;69.05;99941.59;5004583;27;101396;-80
2023/02/19 01:38:24;;;;;;;2.75;1.77;;;;;;;9.64;68.93;99949.41;4998752;27;101499;-78
2023/02/19 01:40:58;;;;;;;2.10;1.60;;;;;;;9.63;69.15;99950.34;4989901;27;97262;-80
2023/02/19 01:43:24;;;;;;;3.00;2.17;;;;;;;9.53;68.98;99933.22;5009398;27;97294;-78
2023/02/19 01:45:50;;;;;;;3.83;2.28;;;;;;;9.64;68.88;99957.28;4995162;27;101496;-78
2023/02/19 01:48:17;;;;;;;5.45;2.85;;;;;;;9.62;68.88;99948.59;5030555;27;101043;-77
2023/02/19 01:50:47;;;;;;;2.92;2.05;;;;;;;9.62;69.02;99940.75;5023910;28;97096;-77
2023/02/19 01:53:14;;;;;;;3.58;2.53;;;;;;;9.65;69.20;99939.78;5030394;28;96871;-78
2023/02/19 01:55:40;;;;;;;3.35;2.28;;;;;;;9.61;69.29;99925.94;5007054;27;101327;-78
2023/02/19 01:58:07;;;;;;;2.70;2.05;;;;;;;9.58;69.31;99912.94;5009452;27;101701;-78
2023/02/19 02:00:36;;;;;;;2.30;1.88;;;;;;;9.44;69.64;99879.38;5017938;27;96796;-81
2023/02/19 02:03:03;;;;;;;2.72;2.20;;;;;;;9.51;69.27;99890.50;5013753;27;96876;-78
2023/02/19 02:05:35;;;;;;;3.00;1.98;;;;;;;9.61;69.58;99902.34;5015064;27;98526;-78
2023/02/19 02:10:47;;;;;;;3.25;2.25;;;;;;;9.59;69.90;99893.69;5014717;27;96996;-78
2023/02/19 02:13:12;;;;;;;3.00;2.30;;;;;;;9.61;69.26;99899.75;5015011;27;96964;-78
2023/02/19 02:15:49;;;;;;;3.90;2.40;;;;;;;9.61;69.52;99898.88;4997645;27;101765;-78
2023/02/19 02:19:07;;;;;;;2.97;2.67;;;;;;;9.55;70.17;99878.16;5035038;27;98512;-78
2023/02/19 02:21:48;;;;;;;4.35;2.78;;;;;;;9.48;69.83;99869.66;4963584;27;97892;-78
2023/02/19 02:24:23;;;;;;;4.50;3.00;;;;;;;9.58;69.51;99881.50;5022431;27;96986;-78
2023/02/19 02:26:58;;;;;;;3.50;2.70;;;;;;;9.60;69.56;99884.06;5012493;27;102142;-82
2023/02/19 02:29:33;;;;;;;3.85;2.92;;;;;;;9.59;69.76;99874.50;5017424;28;101508;-77
2023/02/19 02:32:07;;;;;;;3.03;2.35;;;;;;;9.55;69.67;99870.28;5015596;27;97418;-79
2023/02/19 02:34:57;;;;;;;3.22;2.38;;;;;;;9.56;69.81;99872.84;5006710;27;96889;-77
2023/02/19 02:37:24;;;;;;;4.78;3.10;;;;;;;9.55;69.93;99872.91;5002997;28;101407;-78
2023/02/19 02:39:51;;;;;;;4.90;3.53;;;;;;;9.56;69.88;99872.84;5006009;27;102028;-80
2023/02/19 02:42:26;;;;;;;4.07;2.60;;;;;;;9.57;70.05;99876.31;4990732;27;97263;-78
2023/02/19 02:45:33;;;;;;;3.67;2.80;;;;;;;9.53;70.21;99868.56;5017292;27;96869;-78
2023/02/19 02:48:11;;;;;;;4.13;2.97;;;;;;;9.57;70.16;99868.44;4997176;27;100984;-78
2023/02/19 02:50:44;;;;;;;3.67;2.58;;;;;;;9.52;70.03;99860.78;5034540;27;100910;-78
2023/02/19 02:56:25;;;;;;;4.93;2.78;;;;;;;9.52;70.40;99860.78;5016498;27;96889;-78
2023/02/19 02:58:51;;;;;;;3.38;2.83;;;;;;;9.57;70.04;99861.47;5017156;27;98460;-81
2023/02/19 03:07:52;;;;;;;3.05;2.75;;;;;;;9.55;70.38;99854.56;5017317;27;97385;-78
2023/02/19 03:10:22;;;;;;;3.53;2.90;;;;;;;9.58;69.96;99859.69;5032393;27;101662;-78
2023/02/19 03:21:10;;;;;;;2.78;2.45;;;;;;;9.52;70.45;99853.75;5020210;28;100523;-78
2023/02/19 03:26:24;;;;;;;5.65;3.13;;;;;;;9.51;70.23;99849.44;5020843;27;98321;-79
2023/02/19 03:31:39;;;;;;;6.07;3.72;;;;;;;9.56;70.57;99851.03;5012368;27;102073;-78
2023/02/19 03:34:10;;;;;;;3.67;2.92;;;;;;;9.55;70.25;99837.09;5012829;27;101379;-78
2023/02/19 03:36:44;;;;;;;3.88;3.05;;;;;;;9.56;70.34;99835.31;4991312;27;96788;-78
2023/02/19 03:39:12;;;;;;;4.32;3.67;;;;;;;9.57;70.37;99821.28;5000145;27;97299;-78
2023/02/19 03:41:37;;;;;;;3.08;2.78;;;;;;;9.55;70.61;99817.88;5005764;27;98213;-78
2023/02/19 03:44:17;;;;;;;3.60;3.00;;;;;;;9.54;70.45;99817.03;5039536;27;98330;-78
2023/02/19 03:47:07;;;;;;;3.47;3.17;;;;;;;9.53;70.96;99810.06;5015044;27;97202;-78
2023/02/19 03:49:42;;;;;;;3.53;3.20;;;;;;;9.43;70.54;99793.84;5016154;27;96911;-78
2023/02/19 03:52:44;;;;;;;3.45;3.15;;;;;;;9.47;70.60;99794.59;5000751;27;101302;-78
2023/02/19 03:55:18;;;;;;;4.32;3.58;;;;;;;9.49;70.74;99813.72;4998392;28;101413;-78
2023/02/19 03:57:50;;;;;;;4.18;3.42;;;;;;;9.50;70.31;99816.28;5011742;27;97242;-78
2023/02/19 04:00:30;;;;;;;5.15;4.57;;;;;;;9.49;70.99;99817.19;4988107;27;96847;-80
2023/02/19 04:03:19;;;;;;;4.93;3.92;;;;;;;9.51;70.51;99827.59;4995960;27;101807;-78
2023/02/19 04:05:50;;;;;;;4.32;3.63;;;;;;;9.46;70.51;99813.84;5010167;27;98006;-78
2023/02/19 04:08:21;;;;;;;4.93;3.75;;;;;;;9.49;70.74;99801.47;4991793;27;97054;-78
2023/02/19 04:10:52;;;;;;;4.38;3.92;;;;;;;9.49;70.96;99800.63;5004824;27;97022;-81
2023/02/19 04:13:25;;;;;;;4.57;3.55;;;;;;;9.49;70.83;99804.09;4994136;27;101644;-78
2023/02/19 04:15:53;;;;;;;4.40;4.00;;;;;;;9.46;70.97;99790.28;5016783;27;98022;-78
2023/02/19 04:18:22;;;;;;;4.72;3.70;;;;;;;9.53;70.79;99817.94;5004440;27;98071;-77
2023/02/19 04:20:47;;;;;;;5.35;3.78;;;;;;;9.44;70.60;99794.69;5009834;28;97259;-78
2023/02/19 04:23:16;;;;;;;4.72;3.78;;;;;;;9.51;70.72;99815.38;4981315;28;101091;-79
2023/02/19 04:25:44;;;;;;;3.90;3.13;;;;;;;9.33;71.00;99781.16;5010163;28;101521;-78
2023/02/19 04:28:12;;;;;;;3.97;3.42;;;;;;;9.44;71.14;99794.69;4999468;27;97476;-78
2023/02/19 04:30:38;;;;;;;4.78;3.92;;;;;;;9.52;70.59;99811.84;4995038;27;97012;-78
2023/02/19 04:33:03;;;;;;;5.10;3.63;;;;;;;9.52;70.53;99808.38;4998406;27;101969;-79
2023/02/19 04:35:29;;;;;;;4.03;3.00;;;;;;;9.50;70.79;99804.94;5000407;27;101300;-77
2023/02/19 04:37:54;;;;;;;3.42;3.10;;;;;;;9.50;71.10;99811.03;4985096;27;98385;-81
2023/02/19 04:40:20;;;;;;;3.90;3.30;;;;;;;9.45;70.41;99799.03;5001158;27;97287;-78
2023/02/19 04:42:45;;;;;;;5.30;3.15;;;;;;;9.51;70.76;99804.91;4995808;27;101729;-77
2023/02/19 04:45:11;;;;;;;3.25;2.75;;;;;;;9.47;70.79;99792.81;4997922;27;102005;-77
2023/02/19 04:47:36;;;;;;;4.57;3.58;;;;;;;9.44;70.61;99795.56;5012821;27;97178;-77
2023/02/19 04:50:03;;;;;;;3.88;3.47;;;;;;;9.45;70.38;99796.41;5002383;27;96897;-77
2023/02/19 04:52:28;;;;;;;5.70;3.58;;;;;;;9.40;70.54;99786.13;5013615;27;98319;-77
2023/02/19 04:54:54;;;;;;;4.45;4.05;;;;;;;9.45;70.47;99785.91;5002764;27;98058;-80
2023/02/19 04:57:19;;;;;;;4.40;4.00;;;;;;;9.36;70.51;99768.78;4998295;27;97268;-78
2023/02/19 04:59:45;;;;;;;6.90;4.22;;;;;;;9.44;70.49;99790.31;4998566;27;97057;-77
2023/02/19 05:02:11;;;;;;;4.95;4.45;;;;;;;9.26;70.61;99763.03;4997542;27;101566;-79
2023/02/19 05:04:36;;;;;;;4.70;4.03;;;;;;;9.42;70.67;99784.25;5014826;27;100851;-77
2023/02/19 05:07:02;;;;;;;5.35;4.32;;;;;;;9.47;70.53;99784.97;5003347;28;97154;-77
2023/02/19 05:09:27;;;;;;;5.20;4.70;;;;;;;9.41;70.64;99776.47;5029910;27;96988;-77
2023/02/19 05:11:53;;;;;;;6.78;4.43;;;;;;;9.47;71.09;99784.09;4995529;27;101606;-78
2023/02/19 05:14:18;;;;;;;4.80;4.40;;;;;;;9.45;70.64;99781.56;4994671;27;101686;-77
2023/02/19 05:16:44;;;;;;;6.25;4.57;;;;;;;9.44;70.33;99777.22;5015459;27;97159;-77
2023/02/19 05:19:11;;;;;;;6.18;5.43;;;;;;;9.45;70.56;99778.94;4994199;27;97442;-77
2023/02/19 05:21:38;;;;;;;7.22;4.55;;;;;;;9.42;70.37;99772.94;5002769;28;101566;-77
2023/02/19 05:24:04;;;;;;;5.45;4.95;;;;;;;9.44;70.99;99779.84;5012178;27;101424;-77
2023/02/19 05:26:30;;;;;;;5.65;4.40;;;;;;;9.46;70.59;99787.66;5006328;27;97368;-77
2023/02/19 05:28:55;;;;;;;5.18;4.47;;;;;;;9.45;70.80;99784.19;5067664;27;97482;-80
2023/02/19 05:31:21;;;;;;;5.18;4.68;;;;;;;9.40;70.51;99770.41;5032714;27;101734;-77
2023/02/19 05:33:49;;;;;;;6.15;4.95;;;;;;;9.44;70.58;99771.13;5036053;27;101683;-77
2023/02/19 05:36:16;;;;;;;6.78;4.60;;;;;;;9.11;70.63;99710.41;5035780;27;96733;-80
2023/02/19 05:38:41;;;;;;;5.60;4.57;;;;;;;9.41;70.58;99758.16;5040282;27;97095;-77
2023/02/19 05:41:09;;;;;;;5.18;4.47;;;;;;;9.37;70.48;99759.19;5038514;27;99517;-79
2023/02/19 05:43:36;;;;;;;5.15;4.65;;;;;;;9.33;70.74;99747.09;5049442;27;101576;-77
2023/02/19 05:46:01;;;;;;;5.78;4.55;;;;;;;9.38;70.54;99766.97;5038432;27;96809;-77
2023/02/19 05:48:27;;;;;;;8.23;5.22;;;;;;;9.37;70.62;99767.91;5052690;27;96987;-78
2023/02/19 05:50:52;;;;;;;5.00;4.50;;;;;;;9.34;70.44;99761.88;5031365;27;102046;-77
2023/02/19 05:53:18;;;;;;;5.70;4.35;;;;;;;9.37;70.13;99759.19;5047417;27;100071;-77
2023/02/19 05:55:43;;;;;;;6.50;4.55;;;;;;;9.39;70.48;99765.19;5037842;27;97109;-78
2023/02/19 05:58:09;;;;;;;4.63;3.78;;;;;;;9.29;70.48;99749.00;5031127;27;97426;-77
2023/02/19 06:00:34;;;;;;;3.97;3.42;;;;;;;9.36;70.18;99763.53;5054990;27;101855;-77
2023/02/19 06:03:00;;;;;;;5.45;4.28;;;;;;;9.37;70.01;99767.91;5054773;27;101332;-77
2023/02/19 06:05:26;;;;;;;4.85;3.88;;;;;;;9.34;70.51;99764.50;5051862;27;97091;-78
2023/02/19 06:07:51;;;;;;;4.80;3.55;;;;;;;9.36;70.04;99768.78;5046961;27;97293;-77
2023/02/19 06:10:17;;;;;;;3.83;2.97;;;;;;;9.29;70.14;99762.94;5029896;27;101225;-78
2023/02/19 06:12:43;;;;;;;5.07;3.95;;;;;;;9.33;70.53;99766.28;5054425;27;98567;-78
2023/02/19 06:15:08;;;;;;;4.90;3.35;;;;;;;9.28;70.50;99756.00;5053820;27;98049;-78
2023/02/19 06:17:34;;;;;;;3.92;3.20;;;;;;;9.26;70.41;99760.44;5050218;27;96908;-77
2023/02/19 06:20:00;;;;;;;6.60;3.47;;;;;;;9.35;70.41;99772.31;5049774;27;101207;-77
2023/02/19 06:22:26;;;;;;;3.97;3.55;;;;;;;9.29;70.44;99770.78;5032584;27;101338;-77
2023/02/19 06:24:51;;;;;;;5.63;3.38;;;;;;;9.29;70.31;99769.94;5062958;27;97465;-77
2023/02/19 06:27:17;;;;;;;5.15;3.60;;;;;;;9.31;70.24;99770.75;5069276;27;97189;-77
2023/02/19 06:29:43;;;;;;;3.83;3.00;;;;;;;9.33;70.82;99779.38;5052409;27;97353;-79
2023/02/19 06:32:08;;;;;;;4.10;3.20;;;;;;;9.26;70.66;99780.53;5068116;27;98353;-77
2023/02/19 06:34:34;;;;;;;4.00;3.13;;;;;;;9.29;70.41;99789.13;5043413;27;97121;-77
2023/02/19 06:37:00;;;;;;;4.78;3.00;;;;;;;9.29;70.77;99788.28;5052013;27;97057;-78
2023/02/19 06:39:26;;;;;;;3.72;2.65;;;;;;;9.26;70.07;99781.38;5061391;27;97497;-80
2023/02/19 06:41:56;;;;;;;3.60;3.08;;;;;;;9.25;70.81;99790.16;5054878;27;97623;-81
2023/02/19 06:44:21;;;;;;;3.60;2.90;;;;;;;9.27;70.46;99793.56;5051980;27;97002;-80
2023/02/19 06:46:47;;;;;;;3.20;2.88;;;;;;;9.13;70.48;99777.50;5069343;27;96987;-79
2023/02/19 06:49:14;;;;;;;3.75;2.95;;;;;;;9.24;70.73;99798.06;5052880;27;97947;-77
2023/02/19 06:51:40;;;;;;;4.30;2.78;;;;;;;9.19;70.89;99793.00;5035145;27;101168;-78
2023/02/19 06:54:05;;;;;;;3.40;2.47;;;;;;;9.11;70.42;99768.88;5049734;27;97402;-78
2023/02/19 06:56:33;;;;;;;3.50;2.25;;;;;;;9.03;70.20;99756.03;5049424;27;98049;-78
2023/02/19 06:59:01;;;;;;;2.97;2.05;;;;;;;9.23;70.48;99785.88;5034404;27;98248;-78
2023/02/19 07:01:28;;;;;;;3.00;2.10;;;;;;;9.20;70.65;99786.84;5040993;27;101324;-78
2023/02/19 07:03:54;;;;;;;3.47;2.17;;;;;;;9.22;70.67;99799.88;5032413;27;97390;-79
2023/02/19 07:06:21;;;;;;;2.92;2.40;;;;;;;9.12;70.38;99782.81;5066399;27;97321;-77
2023/02/19 07:08:47;;;;;;;3.40;2.03;;;;;;;9.07;70.85;99790.81;5045333;27;101603;-78
2023/02/19 07:11:13;;;;;;;6.43;1.95;;;;;;;9.18;70.56;99816.63;5067711;27;97545;-78
2023/02/19 07:13:38;;;;;;;6.18;2.67;;;;;;;9.18;69.82;99830.56;5060699;27;97152;-81
2023/02/19 07:16:07;;;;;;;7.75;4.95;;;;;;;9.19;69.78;99834.03;5053404;27;97507;-77
2023/02/19 07:18:33;;;;;;;5.93;3.97;;;;;;;9.19;69.38;99841.88;5042480;27;97642;-78
2023/02/19 07:21:03;;;;;;;6.55;4.28;;;;;;;9.12;69.67;99843.88;5020446;27;101443;-78
2023/02/19 07:23:28;;;;;;;3.65;2.50;;;;;;;9.12;68.88;99848.25;5030546;27;97181;-80
2023/02/19 07:25:54;;;;;;;5.25;3.22;;;;;;;9.04;69.01;99843.28;5056455;27;97863;-79
2023/02/19 07:28:19;;;;;;;2.85;2.15;;;;;;;9.06;68.66;99849.34;5033562;27;101687;-78
2023/02/19 07:30:45;;;;;;;2.95;1.95;;;;;;;8.95;68.11;99841.00;5066394;27;98159;-77
2023/02/19 07:33:10;;;;;;;3.45;2.42;;;;;;;9.01;68.37;99864.34;5050548;27;97259;-78
2023/02/19 07:35:36;;;;;;;2.60;1.70;;;;;;;8.93;67.95;99850.66;5067950;27;96801;-77
2023/02/19 07:38:01;;;;;;;2.80;1.73;;;;;;;8.95;68.01;99859.31;5042964;27;101922;-77
2023/02/19 07:40:27;;;;;;;3.13;1.90;;;;;;;8.95;67.62;99859.31;5034291;27;101172;-77
2023/02/19 07:42:52;;;;;;;3.30;1.75;;;;;;;8.81;67.50;99844.97;5020281;27;98019;-76
2023/02/19 07:45:18;;;;;;;4.45;1.70;;;;;;;8.92;67.42;99872.53;5030278;27;97252;-77
2023/02/19 07:47:43;;;;;;;2.58;1.73;;;;;;;8.81;67.54;99857.16;5034318;27;101260;-77
2023/02/19 07:50:09;;;;;;;2.22;1.98;;;;;;;8.91;67.22;99884.75;5066873;27;97633;-78
2023/02/19 07:52:35;;;;;;;1.70;1.55;;;;;;;8.94;66.97;99892.50;5045439;27;97232;-77
2023/02/19 07:55:00;;;;;;;1.90;1.40;;;;;;;8.79;66.63;99879.94;5066960;27;97132;-80
2023/02/19 07:57:30;;;;;;;1.27;1.17;;;;;;;8.74;66.53;99879.22;5048578;27;98750;-77
2023/02/19 07:59:55;;;;;;;1.77;1.27;;;;;;;8.79;66.34;99899.13;5032170;27;101135;-77
2023/02/19 08:05:05;;;;;;;1.08;0.80;;;;;;;8.75;66.14;99902.72;5051636;27;97942;-76
2023/02/19 08:07:35;;;;;;;1.98;1.38;;;;;;;8.82;65.77;99921.72;5045798;27;101246;-77
2023/02/19 08:15:38;;;;;;;1.83;1.17;;;;;;;8.75;65.21;99925.41;5052580;27;97547;-77
2023/02/19 08:18:04;;;;;;;2.80;1.00;;;;;;;8.74;65.50;99928.97;5048019;27;101175;-82
2023/02/19 08:20:29;;;;;;;3.95;1.70;;;;;;;8.66;65.60;99931.81;5034455;27;101267;-77
2023/02/19 08:22:55;;;;;;;5.43;3.03;;;;;;;8.66;65.50;99944.03;5035068;27;97220;-77
2023/02/19 08:25:21;;;;;;;4.85;2.65;;;;;;;8.66;65.35;99955.38;5067696;27;98037;-78
2023/02/19 08:27:46;;;;;;;3.13;2.15;;;;;;;8.67;65.43;99956.22;5030127;27;101826;-79
2023/02/19 08:30:12;;;;;;;6.25;2.00;;;;;;;8.63;65.18;99955.47;5025880;27;101177;-79
2023/02/19 08:32:37;;;;;;;2.47;1.40;;;;;;;8.54;64.85;99945.28;5065826;27;97302;-77
2023/02/19 08:35:03;;;;;;;2.50;1.30;;;;;;;8.54;64.13;99959.22;5045791;27;96855;-79
2023/02/19 08:37:29;;;;;;;1.95;1.23;;;;;;;8.58;64.11;99970.44;5060733;27;97681;-79
2023/02/19 08:39:54;;;;;;;3.03;1.70;;;;;;;8.60;64.28;99986.97;5051154;27;101660;-81
2023/02/19 08:42:20;;;;;;;4.47;2.25;;;;;;;8.54;64.17;99979.31;5047740;27;97407;-86
2023/02/19 08:44:45;;;;;;;3.85;2.20;;;;;;;8.49;63.83;99974.19;5058919;27;98515;-82
2023/02/19 08:47:11;;;;;;;4.78;2.42;;;;;;;8.48;63.83;99979.50;5029015;27;100156;-82
2023/02/19 08:49:37;;;;;;;4.28;1.80;;;;;;;8.50;64.30;99985.53;5033354;27;101364;-81
2023/02/19 08:52:02;;;;;;;4.20;1.75;;;;;;;8.48;63.98;99982.13;5049872;27;96828;-81
2023/02/19 08:54:29;;;;;;;3.03;1.90;;;;;;;8.48;64.56;99997.81;5031095;27;97141;-80
2023/02/19 08:56:54;;;;;;;3.42;1.80;;;;;;;8.50;64.33;100001.25;5051383;27;101631;-80
2023/02/19 08:59:20;;;;;;;4.00;1.70;;;;;;;8.50;64.54;100004.72;5067910;27;97294;-82
2023/02/19 09:01:45;;;;;;;2.78;1.48;;;;;;;8.50;64.25;100004.72;5029323;27;98431;-80
2023/02/19 09:04:12;;;;;;;3.95;1.35;;;;;;;8.52;64.19;100010.75;5031542;27;97363;-80
2023/02/19 09:06:38;;;;;;;1.38;1.13;;;;;;;8.44;63.88;100006.66;5047704;27;102135;-79
2023/02/19 09:09:03;;;;;;;2.88;1.27;;;;;;;8.46;64.41;100017.91;5020690;27;101392;-84
2023/02/19 09:11:29;;;;;;;3.25;1.30;;;;;;;8.49;63.86;100034.38;5021313;27;97177;-82
2023/02/19 09:13:56;;;;;;;1.75;1.33;;;;;;;8.41;64.29;100027.66;5029551;27;97265;-81
2023/02/19 09:16:21;;;;;;;2.72;1.40;;;;;;;8.46;63.52;100034.47;5042694;27;101584;-77
2023/02/19 09:18:47;;;;;;;3.40;1.60;;;;;;;8.46;63.67;100038.84;5045384;27;101076;-81
2023/02/19 09:21:13;;;;;;;2.88;1.58;;;;;;;8.43;63.78;100038.94;5045874;27;97357;-81
2023/02/19 09:23:38;;;;;;;1.65;1.15;;;;;;;8.43;63.50;100049.41;5064321;27;97410;-86
2023/02/19 09:26:07;;;;;;;2.45;1.30;;;;;;;8.30;63.37;100034.03;5066399;27;98753;-82
2023/02/19 09:28:33;;;;;;;4.68;2.33;;;;;;;8.46;63.66;100050.16;5034850;27;101449;-82
2023/02/19 09:31:07;;;;;;;3.08;1.73;;;;;;;8.35;63.49;100044.38;5051462;27;97405;-82
2023/02/19 09:33:33;;;;;;;2.97;2.00;;;;;;;8.42;64.24;100051.16;5023634;27;97249;-80
2023/02/19 09:35:59;;;;;;;4.28;1.95;;;;;;;8.36;63.51;100038.22;5038814;27;101293;-81
2023/02/19 09:38:26;;;;;;;5.15;2.20;;;;;;;8.53;63.79;100074.41;5018492;27;101394;-81
2023/02/19 09:40:52;;;;;;;3.88;1.90;;;;;;;8.56;63.82;100069.06;5034432;27;97213;-81
2023/02/19 09:43:19;;;;;;;3.53;1.80;;;;;;;8.51;63.37;100058.72;5031613;27;97538;-81
2023/02/19 09:45:46;;;;;;;3.95;1.83;;;;;;;8.65;63.81;100078.41;5048672;27;100988;-85
2023/02/19 09:48:11;;;;;;;3.08;1.52;;;;;;;8.67;63.23;100090.53;5028885;27;101012;-82
2023/02/19 09:50:43;;;;;;;3.10;2.05;;;;;;;8.69;63.21;100082.63;5066157;27;97313;-80
2023/02/19 09:53:33;;;;;;;6.63;3.65;;;;;;;8.77;63.68;100078.03;5027684;27;97357;-81
2023/02/19 09:55:59;;;;;;;4.85;2.17;;;;;;;8.68;63.25;100052.16;5039828;27;101700;-83
2023/02/19 09:58:31;;;;;;;5.38;2.67;;;;;;;8.94;63.36;100082.75;5048000;27;101502;-82
2023/02/19 10:01:00;;;;;;;11.73;4.30;;;;;;;8.94;63.23;100077.53;5044519;27;96946;-81
2023/02/19 10:03:29;;;;;;;6.40;3.80;;;;;;;9.06;63.32;100100.69;5026428;27;98314;-81
2023/02/19 10:06:05;;;;;;;6.82;2.92;;;;;;;8.95;63.19;100080.06;5046347;27;101656;-82
2023/02/19 10:08:33;;;;;;;5.30;2.28;;;;;;;9.02;62.70;100096.47;5053763;27;101408;-82
2023/02/19 10:11:00;;;;;;;4.55;1.60;;;;;;;8.99;62.90;100089.56;5027714;27;96848;-83
2023/02/19 10:13:32;;;;;;;2.53;1.77;;;;;;;9.18;62.94;100120.41;5052295;27;97239;-83
2023/02/19 10:16:00;;;;;;;5.32;1.73;;;;;;;9.26;63.00;100123.66;5050528;27;98535;-84
2023/02/19 10:18:28;;;;;;;4.05;1.48;;;;;;;9.23;62.65;100114.13;5033141;27;101562;-85
2023/02/19 10:20:55;;;;;;;4.43;1.67;;;;;;;9.30;62.11;100128.72;5026402;27;97502;-84
2023/02/19 10:23:20;;;;;;;5.38;2.03;;;;;;;9.34;62.28;100136.47;5021945;27;97058;-83
2023/02/19 10:25:52;;;;;;;5.40;2.20;;;;;;;9.17;62.15;100116.94;5068722;27;98605;-83
2023/02/19 10:28:21;;;;;;;6.45;2.40;;;;;;;9.33;61.45;100147.88;5032523;27;101158;-84
2023/02/19 10:30:55;;;;;;;3.50;2.00;;;;;;;9.26;61.48;100150.69;5034629;27;97240;-85
2023/02/19 10:33:21;;;;;;;4.97;1.75;;;;;;;9.19;61.73;100143.94;5051847;27;97123;-84
2023/02/19 10:36:03;;;;;;;3.83;1.58;;;;;;;9.26;60.78;100157.69;5067522;27;97915;-85
2023/02/19 10:38:39;;;;;;;4.70;1.77;;;;;;;9.32;61.03;100164.50;5020974;27;102715;-85
2023/02/19 10:41:13;;;;;;;5.20;2.13;;;;;;;9.32;60.75;100162.75;5029752;27;96973;-86
2023/02/19 10:43:42;;;;;;;4.65;1.70;;;;;;;9.27;60.53;100164.63;5052493;27;97344;-83
2023/02/19 10:46:21;;;;;;;5.28;1.80;;;;;;;9.16;60.59;100149.28;5032640;27;101653;-84
2023/02/19 10:48:56;;;;;;;3.53;1.40;;;;;;;9.22;60.47;100167.41;5035133;27;102055;-82
2023/02/19 10:51:36;;;;;;;6.45;3.00;;;;;;;9.02;60.47;100160.16;5063401;27;97497;-85
2023/02/19 10:54:13;;;;;;;9.15;2.70;;;;;;;8.98;60.41;100160.28;5047538;27;97270;-86
2023/02/19 10:56:40;;;;;;;6.85;2.42;;;;;;;9.06;60.46;100177.47;5041996;27;97929;-86
2023/02/19 10:59:27;;;;;;;6.85;2.30;;;;;;;9.05;60.00;100182.78;5050003;27;97446;-88
2023/02/19 11:01:53;;;;;;;7.40;2.17;;;;;;;9.10;60.70;100193.94;5041738;27;96801;-85
2023/02/19 11:04:19;;;;;;;7.30;2.00;;;;;;;9.18;60.67;100193.72;5053353;27;97301;-85
2023/02/19 11:06:45;;;;;;;6.78;2.15;;;;;;;9.17;60.82;100178.94;5048523;27;101575;-86
2023/02/19 11:09:32;;;;;;;5.05;2.03;;;;;;;9.24;60.42;100194.41;5050836;27;101787;-85
2023/02/19 11:11:58;;;;;;;5.90;2.00;;;;;;;9.25;59.81;100195.25;5038383;27;100282;-80
2023/02/19 11:14:25;;;;;;;6.68;2.40;;;;;;;9.29;59.67;100212.59;5033700;27;98670;-81
2023/02/19 11:16:54;;;;;;;8.57;2.70;;;;;;;9.32;59.61;100209.88;5036562;27;100822;-79
2023/02/19 11:19:35;;;;;;;5.03;2.10;;;;;;;9.17;59.95;100171.94;5064986;27;98085;-80
2023/02/19 11:22:11;;;;;;;8.98;2.38;;;;;;;9.39;58.97;100206.16;5057842;27;97798;-79
2023/02/19 11:24:39;;;;;;;6.97;1.98;;;;;;;9.42;58.28;100199.97;5070012;27;97369;-82
2023/02/19 11:27:06;;;;;;;7.38;1.80;;;;;;;9.43;58.65;100204.31;5053678;27;97489;-82
2023/02/19 11:29:36;;;;;;;5.60;1.77;;;;;;;9.47;57.90;100211.19;5061512;27;97736;-82
2023/02/19 11:32:19;;;;;;;6.47;1.95;;;;;;;9.50;57.40;100209.31;5053246;27;98434;-82
2023/02/19 11:34:48;;;;;;;4.53;1.95;;;;;;;9.42;57.08;100208.69;5061231;27;98387;-83
2023/02/19 11:37:16;;;;;;;7.13;2.90;;;;;;;9.41;56.58;100204.34;5042216;27;101892;-78
2023/02/19 11:39:44;;;;;;;5.30;2.30;;;;;;;9.23;57.06;100207.56;5060434;27;97864;-80
2023/02/19 11:42:30;;;;;;;5.32;2.15;;;;;;;9.22;56.47;100208.44;5050495;27;97148;-80
2023/02/19 11:45:10;;;;;;;5.10;1.90;;;;;;;9.17;56.59;100212.97;5069802;27;97330;-79
2023/02/19 11:47:51;;;;;;;3.38;1.58;;;;;;;9.16;57.09;100211.25;5041926;27;101448;-80
2023/02/19 11:50:23;;;;;;;6.25;1.80;;;;;;;9.14;56.59;100218.31;5040781;27;100870;-77
2023/02/19 11:53:16;;;;;;;5.07;1.70;;;;;;;9.13;56.50;100212.19;5051757;27;97775;-81
2023/02/19 11:55:45;;;;;;;7.22;2.35;;;;;;;9.18;57.13;100212.91;5068034;27;98595;-81
2023/02/19 11:58:16;;;;;;;5.97;1.85;;;;;;;9.19;57.26;100219.88;5052560;27;101256;-80
2023/02/19 12:01:06;;;;;;;4.28;1.70;;;;;;;9.15;57.12;100214.78;5067832;27;97505;-81
2023/02/19 12:04:15;;;;;;;4.38;1.83;;;;;;;9.16;57.42;100226.97;5036270;27;97358;-78
2023/02/19 12:06:59;;;;;;;4.88;1.92;;;;;;;9.20;57.91;100220.75;5047811;27;96935;-79
2023/02/19 12:09:43;;;;;;;7.05;2.38;;;;;;;9.21;57.15;100220.69;5057412;27;98558;-78
2023/02/19 12:12:40;;;;;;;4.95;2.25;;;;;;;9.19;57.32;100237.34;5038809;27;101483;-79
2023/02/19 12:15:30;;;;;;;7.32;2.42;;;;;;;9.10;57.47;100235.00;5057787;27;97472;-78
2023/02/19 12:18:23;;;;;;;6.10;2.17;;;;;;;9.11;56.92;100249.81;5053417;27;97117;-78
2023/02/19 12:21:26;;;;;;;6.22;2.63;;;;;;;9.12;57.52;100256.78;5047837;27;101673;-78